Time;durP1;ratioP1;P1;durP2;ratioP2;P2;SDS_P1;SDS_P2;PMS_P1;PMS_P2;Temp;Humidity;BMP_temperature;BMP_pressure;BME280_temperature;BME280_humidity;BME280_pressure;Samples;Min_cycle;Max_cycle;Signal;HPM_P1;HPM_P2
2022/10/26 00:01:24;;;;;;;42.88;20.65;;;11.10;1.00;;;11.69;100.00;99011.06;4940569;28;121965;-70
2022/10/26 00:03:55;;;;;;;46.75;23.35;;;11.20;1.00;;;11.72;100.00;99015.03;4940410;28;129939;-70
2022/10/26 00:06:27;;;;;;;49.00;22.25;;;11.20;1.00;;;11.69;100.00;99007.53;4940214;28;129511;-70
2022/10/26 00:08:58;;;;;;;45.60;22.02;;;11.20;1.00;;;11.70;100.00;99014.56;4954225;28;120461;-70
2022/10/26 00:11:26;;;;;;;44.17;22.63;;;11.20;1.00;;;11.69;100.00;99021.94;4960275;28;119650;-71
2022/10/26 00:13:55;;;;;;;51.33;21.77;;;11.20;1.00;;;11.69;100.00;99012.97;4945069;28;130262;-70
2022/10/26 00:16:27;;;;;;;46.50;22.02;;;11.20;1.00;;;11.67;100.00;99015.22;4945777;28;128321;-70
2022/10/26 00:18:56;;;;;;;46.38;20.80;;;11.20;1.00;;;11.68;100.00;99019.53;4960139;28;119866;-70
2022/10/26 00:21:24;;;;;;;37.20;20.05;;;11.30;1.00;;;11.68;100.00;99014.09;4959790;28;119587;-71
2022/10/26 00:23:53;;;;;;;46.30;21.52;;;11.30;1.00;;;11.66;100.00;99011.72;4958493;28;129505;-71
2022/10/26 00:26:24;;;;;;;47.38;22.35;;;11.20;1.00;;;11.67;100.00;99009.78;4959698;28;129324;-70
2022/10/26 00:28:54;;;;;;;42.72;21.38;;;11.30;1.00;;;11.69;100.00;99015.69;4960577;28;119797;-70
2022/10/26 00:31:23;;;;;;;44.20;21.55;;;11.30;1.00;;;11.72;100.00;99020.47;4944882;28;119732;-70
2022/10/26 00:33:53;;;;;;;43.60;20.42;;;11.30;1.00;;;11.73;100.00;99013.91;4945285;28;128802;-70
2022/10/26 00:36:23;;;;;;;42.95;21.75;;;11.30;1.00;;;11.73;100.00;99016.63;4959717;28;129708;-71
2022/10/26 00:38:52;;;;;;;40.35;21.60;;;11.30;1.00;;;11.68;100.00;99011.38;4959839;28;120164;-71
2022/10/26 00:41:25;;;;;;;41.40;21.70;;;11.40;1.00;;;11.70;100.00;99020.00;4959845;28;120230;-70
2022/10/26 00:43:55;;;;;;;41.97;20.65;;;11.40;1.00;;;11.77;100.00;99009.41;4941693;28;130412;-71
2022/10/26 00:46:27;;;;;;;38.40;20.52;;;11.40;1.00;;;11.79;100.00;99012.56;4944984;28;129014;-71
2022/10/26 00:49:01;;;;;;;42.40;20.60;;;11.40;1.00;;;11.79;100.00;99009.84;4958344;28;122843;-70
2022/10/26 00:51:35;;;;;;;41.08;20.15;;;11.30;1.00;;;11.72;100.00;99006.88;4959575;28;121929;-70
2022/10/26 00:54:07;;;;;;;40.00;20.98;;;11.30;1.00;;;11.69;100.00;98999.38;4959150;28;129939;-70
2022/10/26 00:56:37;;;;;;;40.53;20.45;;;11.30;1.00;;;11.69;100.00;99007.53;4959973;28;129537;-72
2022/10/26 00:59:10;;;;;;;45.63;20.48;;;11.30;1.00;;;11.74;100.00;99004.63;4963235;28;119762;-70
2022/10/26 01:01:43;;;;;;;38.10;19.17;;;11.20;1.00;;;11.77;100.00;99006.69;4962804;28;119512;-70
2022/10/26 01:04:13;;;;;;;41.45;21.48;;;11.20;1.00;;;11.77;100.00;99009.41;4962532;28;130060;-70
2022/10/26 01:06:42;;;;;;;39.35;20.20;;;11.20;1.00;;;11.81;100.00;99004.91;4962694;28;130389;-70
2022/10/26 01:09:12;;;;;;;38.25;20.75;;;11.20;1.00;;;11.85;100.00;99011.25;4962780;28;119776;-70
2022/10/26 01:11:42;;;;;;;42.40;20.83;;;11.20;1.00;;;11.85;100.00;99011.25;4962548;28;119492;-71
2022/10/26 01:14:13;;;;;;;40.90;20.67;;;11.30;1.00;;;11.89;100.00;99000.53;4946468;28;130068;-70
2022/10/26 01:17:00;;;;;;;45.53;21.58;;;11.30;1.00;;;11.91;100.00;98998.25;4960598;28;129545;-70
2022/10/26 01:20:40;;;;;;;42.30;21.77;;;11.30;1.00;;;11.89;100.00;98992.38;4962710;28;120186;-71
2022/10/26 01:23:19;;;;;;;36.33;20.23;;;11.30;1.00;;;11.93;100.00;98998.75;4928534;28;118641;-72
2022/10/26 01:26:30;;;;;;;37.33;19.65;;;11.30;1.00;;;11.89;100.00;98997.81;4944580;28;130074;-71
2022/10/26 01:29:48;;;;;;;39.25;21.60;;;11.30;1.00;;;11.89;100.00;98997.81;4948764;28;129548;-72
2022/10/26 01:32:24;;;;;;;41.23;21.60;;;11.40;1.00;;;11.90;100.00;98995.88;4963145;28;119600;-73
2022/10/26 01:35:00;;;;;;;42.90;21.63;;;11.30;1.00;;;11.88;100.00;99002.44;4962734;28;119638;-71
2022/10/26 01:37:35;;;;;;;39.20;21.50;;;11.30;1.00;;;11.89;100.00;99000.53;4963661;28;129181;-71
2022/10/26 01:40:09;;;;;;;38.13;20.35;;;11.40;1.00;;;11.90;100.00;98990.44;4947735;28;129210;-71
2022/10/26 01:42:45;;;;;;;38.25;20.15;;;11.40;1.00;;;11.88;100.00;98988.84;4960669;28;122408;-73
2022/10/26 01:45:16;;;;;;;39.80;20.93;;;11.40;1.00;;;11.88;100.00;98983.41;4962265;28;121788;-70
2022/10/26 01:47:48;;;;;;;37.15;20.27;;;11.40;1.00;;;11.89;100.00;98989.66;4961834;28;130204;-72
2022/10/26 01:50:18;;;;;;;38.58;19.90;;;11.40;1.00;;;11.90;100.00;98993.16;4961872;28;129638;-72
2022/10/26 01:52:50;;;;;;;38.17;21.20;;;11.40;1.00;;;11.81;100.00;98999.47;4962697;28;119560;-71
2022/10/26 01:55:47;;;;;;;36.90;19.67;;;11.40;1.00;;;11.82;100.00;98992.88;4962186;28;120186;-70
2022/10/26 01:58:49;;;;;;;39.92;20.63;;;11.40;1.00;;;11.80;100.00;98992.44;4962016;28;129962;-71
2022/10/26 02:01:35;;;;;;;31.63;19.88;;;11.40;1.00;;;11.80;100.00;98992.44;4961856;28;130733;-72
2022/10/26 02:04:21;;;;;;;36.10;20.10;;;11.40;1.00;;;11.81;100.00;98999.47;4962109;28;119409;-71
2022/10/26 02:07:01;;;;;;;38.35;20.42;;;11.40;1.00;;;11.84;100.00;99004.25;4962194;28;119300;-70
2022/10/26 02:09:39;;;;;;;33.08;19.15;;;11.40;1.00;;;11.83;100.00;99008.06;4941858;28;130909;-72
2022/10/26 02:12:15;;;;;;;38.38;20.75;;;11.30;1.00;;;11.83;100.00;98997.19;4961505;28;129515;-70
2022/10/26 02:14:50;;;;;;;32.38;19.13;;;11.40;1.00;;;11.80;100.00;99003.31;4961945;28;119573;-70
2022/10/26 02:17:28;;;;;;;38.08;20.10;;;11.40;1.00;;;11.84;100.00;99004.25;4961634;28;119614;-71
2022/10/26 02:20:03;;;;;;;33.45;19.70;;;11.50;1.00;;;11.80;100.00;99006.03;4961290;28;129743;-70
2022/10/26 02:22:37;;;;;;;36.15;19.63;;;11.50;1.00;;;11.78;100.00;99010.19;4961065;28;129775;-71
2022/10/26 02:25:11;;;;;;;32.17;19.92;;;11.40;1.00;;;11.79;100.00;99001.69;4961662;28;119623;-71
2022/10/26 02:27:44;;;;;;;36.25;20.25;;;11.40;1.00;;;11.78;100.00;99008.28;4947344;28;119326;-71
2022/10/26 02:30:14;;;;;;;31.90;20.20;;;11.50;1.00;;;11.77;100.00;99009.41;4962055;28;129819;-71
2022/10/26 02:32:48;;;;;;;32.83;19.05;;;11.40;1.00;;;11.70;100.00;99014.56;4961317;28;129529;-70
2022/10/26 02:35:23;;;;;;;36.30;19.55;;;11.40;1.00;;;11.68;100.00;99005.94;4945611;28;122259;-70
2022/10/26 02:37:56;;;;;;;38.97;19.70;;;11.40;1.00;;;11.65;100.00;99006.59;4961420;28;122061;-72
2022/10/26 02:40:28;;;;;;;36.30;19.33;;;11.40;1.00;;;11.60;100.00;99010.31;4960955;28;130887;-71
2022/10/26 02:43:03;;;;;;;37.83;20.65;;;11.40;1.00;;;11.56;100.00;99014.03;4946519;28;128979;-74
2022/10/26 02:45:37;;;;;;;39.40;21.50;;;11.40;1.00;;;11.55;100.00;99012.44;4961056;28;119583;-73
2022/10/26 02:48:07;;;;;;;39.35;21.55;;;11.30;1.00;;;11.61;100.00;99016.53;4961324;28;119527;-73
2022/10/26 02:50:51;;;;;;;37.28;20.58;;;11.30;1.00;;;11.61;100.00;99016.53;4960862;28;130217;-72
2022/10/26 02:53:30;;;;;;;39.58;21.10;;;11.40;1.00;;;11.61;100.00;99020.06;4961219;28;130125;-72
2022/10/26 02:56:02;;;;;;;36.25;18.85;;;11.40;1.00;;;11.61;100.00;99027.41;4961330;28;120327;-74
2022/10/26 02:58:34;;;;;;;32.33;18.58;;;11.30;1.00;;;11.62;100.00;99020.84;4961289;28;119729;-72
2022/10/26 03:01:03;;;;;;;35.53;20.25;;;11.30;1.00;;;11.61;100.00;99027.41;4959396;28;130390;-72
2022/10/26 03:03:31;;;;;;;35.20;19.65;;;11.30;1.00;;;11.60;100.00;99023.13;4960729;28;130028;-74
2022/10/26 03:06:01;;;;;;;40.67;22.10;;;11.30;1.00;;;11.61;100.00;99027.41;4947061;28;119264;-72
2022/10/26 03:08:30;;;;;;;37.67;20.40;;;11.30;1.00;;;11.61;100.00;99021.97;4961153;28;120136;-72
2022/10/26 03:10:58;;;;;;;33.50;19.05;;;11.30;1.00;;;11.57;100.00;99027.28;4960697;28;129974;-73
2022/10/26 03:13:27;;;;;;;38.08;20.63;;;11.30;1.00;;;11.60;100.00;99025.84;4960954;28;130734;-72
2022/10/26 03:15:56;;;;;;;40.55;20.77;;;11.30;1.00;;;11.62;100.00;99031.72;4960887;28;119601;-72
2022/10/26 03:18:25;;;;;;;37.33;19.70;;;11.30;1.00;;;11.59;100.00;99030.44;4961214;28;119500;-71
2022/10/26 03:20:54;;;;;;;35.85;20.42;;;11.30;1.00;;;11.63;100.00;99027.88;4960585;28;129937;-71
2022/10/26 03:23:23;;;;;;;39.25;19.48;;;11.30;1.00;;;11.66;100.00;99035.38;4960440;28;129896;-71
2022/10/26 03:25:52;;;;;;;32.67;18.95;;;11.30;1.00;;;11.66;100.00;99040.81;4944867;28;121397;-71
2022/10/26 03:28:20;;;;;;;34.45;19.63;;;11.30;1.00;;;11.69;100.00;99034.72;4960874;28;122608;-71
2022/10/26 03:30:48;;;;;;;34.45;20.00;;;11.30;1.00;;;11.71;100.00;99037.91;4962078;28;129944;-71
2022/10/26 03:33:17;;;;;;;38.38;19.67;;;11.30;1.00;;;11.69;100.00;99042.88;4960267;28;129857;-71
2022/10/26 03:35:45;;;;;;;38.33;20.73;;;11.30;1.00;;;11.71;100.00;99037.91;4960386;28;119493;-73
2022/10/26 03:38:14;;;;;;;34.28;18.60;;;11.30;1.00;;;11.67;100.00;99042.41;4960670;28;119637;-73
2022/10/26 03:40:47;;;;;;;33.17;19.13;;;11.30;1.00;;;11.70;100.00;99047.19;4960113;28;129937;-73
2022/10/26 03:43:15;;;;;;;32.55;19.50;;;11.30;1.00;;;11.70;100.00;99047.19;4943000;28;130052;-71
2022/10/26 03:45:44;;;;;;;33.03;19.80;;;11.30;1.00;;;11.67;100.00;99053.28;4960347;28;120061;-71
2022/10/26 03:48:13;;;;;;;36.38;20.77;;;11.30;1.00;;;11.66;100.00;99051.69;4960452;28;119631;-71
2022/10/26 03:50:41;;;;;;;40.30;20.98;;;11.30;1.00;;;11.64;100.00;99048.50;4958441;28;130433;-72
2022/10/26 03:53:10;;;;;;;38.38;21.70;;;11.30;1.00;;;11.61;100.00;99043.72;4928464;28;129771;-72
2022/10/26 03:55:38;;;;;;;36.55;20.48;;;11.30;1.00;;;11.57;100.00;99053.66;4938425;28;119187;-73
2022/10/26 03:58:09;;;;;;;40.97;20.95;;;11.30;1.00;;;11.58;100.00;99050.63;4957557;28;119357;-74
2022/10/26 04:00:37;;;;;;;37.50;21.60;;;11.30;1.00;;;11.59;100.00;99056.84;4940264;28;131248;-72
2022/10/26 04:03:06;;;;;;;37.55;19.92;;;11.20;1.00;;;11.56;100.00;99052.88;4941723;28;129483;-75
2022/10/26 04:05:34;;;;;;;36.20;21.38;;;11.20;1.00;;;11.54;100.00;99059.75;4953968;28;120373;-74
2022/10/26 04:08:03;;;;;;;38.20;21.10;;;11.20;1.00;;;11.46;100.00;99059.47;4959784;28;119718;-72
2022/10/26 04:10:32;;;;;;;40.00;22.23;;;11.20;1.00;;;11.46;100.00;99059.47;4959540;28;130298;-70
2022/10/26 04:13:01;;;;;;;41.10;22.02;;;11.20;1.00;;;11.45;100.00;99065.22;4959842;28;129468;-71
2022/10/26 04:15:31;;;;;;;41.35;22.17;;;11.20;1.00;;;11.42;100.00;99057.72;4958112;28;121969;-73
2022/10/26 04:18:02;;;;;;;42.75;21.75;;;11.20;1.00;;;11.42;100.00;99058.53;4959535;28;121941;-72
2022/10/26 04:20:33;;;;;;;36.65;20.02;;;11.20;1.00;;;11.44;100.00;99067.16;4959759;28;130927;-70
2022/10/26 04:23:04;;;;;;;37.22;21.33;;;11.20;1.00;;;11.43;100.00;99071.00;4959538;28;129581;-71
2022/10/26 04:25:33;;;;;;;36.53;20.77;;;11.20;1.00;;;11.41;100.00;99061.59;4959781;28;119977;-71
2022/10/26 04:28:04;;;;;;;41.15;21.33;;;11.20;1.00;;;11.42;100.00;99057.72;4961836;28;119188;-71
2022/10/26 04:30:35;;;;;;;39.25;21.60;;;11.20;1.00;;;11.43;100.00;99071.00;4962057;28;129789;-71
2022/10/26 04:33:04;;;;;;;38.28;21.08;;;11.20;1.00;;;11.42;100.00;99066.69;4946093;28;130082;-72
2022/10/26 04:35:33;;;;;;;42.13;22.05;;;11.20;1.00;;;11.38;100.00;99068.47;4949403;28;119445;-71
2022/10/26 04:38:04;;;;;;;33.65;18.98;;;11.20;1.00;;;11.18;100.00;99080.84;4964121;28;120184;-73
2022/10/26 04:40:35;;;;;;;29.58;16.90;;;11.10;1.00;;;11.02;100.00;99077.88;4963132;28;130014;-71
2022/10/26 04:43:03;;;;;;;29.45;17.13;;;11.00;1.00;;;11.00;100.00;99080.13;4948414;28;128654;-69
2022/10/26 04:45:34;;;;;;;30.70;16.63;;;11.00;1.00;;;11.04;100.00;99072.13;4962915;28;120129;-70
2022/10/26 04:48:05;;;;;;;34.65;19.98;;;11.00;1.00;;;11.03;100.00;99075.94;4961751;28;119957;-70
2022/10/26 04:50:34;;;;;;;32.05;19.02;;;11.00;1.00;;;11.02;100.00;99072.44;4962908;28;129795;-70
2022/10/26 04:53:05;;;;;;;35.70;20.13;;;11.00;1.00;;;11.07;100.00;99068.75;4948009;28;128522;-69
2022/10/26 04:55:33;;;;;;;36.58;18.77;;;11.00;1.00;;;11.11;100.00;99075.94;4963234;28;119721;-69
2022/10/26 04:58:02;;;;;;;34.88;18.80;;;11.00;1.00;;;11.12;100.00;99077.50;4948867;28;118856;-69
2022/10/26 05:00:32;;;;;;;36.17;20.02;;;11.00;1.00;;;11.11;100.00;99075.94;4962458;28;131094;-71
2022/10/26 05:03:03;;;;;;;36.67;19.83;;;11.00;1.00;;;11.12;100.00;99077.50;4962709;28;130434;-69
2022/10/26 05:05:34;;;;;;;39.40;19.58;;;11.00;1.00;;;11.08;100.00;99079.28;4961631;28;122158;-71
2022/10/26 05:08:03;;;;;;;32.83;19.42;;;11.00;1.00;;;11.07;100.00;99077.69;4963049;28;122048;-68
2022/10/26 05:10:31;;;;;;;39.72;20.85;;;11.00;1.00;;;11.05;100.00;99076.44;4965361;28;131729;-71
2022/10/26 05:13:01;;;;;;;40.15;21.80;;;11.00;1.00;;;11.05;100.00;99082.66;4962532;28;129603;-70
2022/10/26 05:15:29;;;;;;;38.75;21.63;;;11.00;1.00;;;11.03;100.00;99093.06;4963027;28;120480;-70
2022/10/26 05:18:01;;;;;;;39.25;20.88;;;10.90;1.00;;;11.00;100.00;99095.59;4945213;28;119491;-71
2022/10/26 05:20:33;;;;;;;36.70;20.25;;;10.90;1.00;;;11.00;100.00;99101.84;4962548;28;129806;-70
2022/10/26 05:23:04;;;;;;;35.13;20.15;;;10.90;1.00;;;10.99;100.00;99094.81;4944996;28;129606;-70
2022/10/26 05:25:36;;;;;;;37.22;21.25;;;10.90;1.00;;;10.95;100.00;99093.88;4962793;28;119815;-70
2022/10/26 05:28:08;;;;;;;44.75;26.23;;;10.80;1.00;;;10.97;100.00;99097.06;4962643;28;119371;-71
2022/10/26 05:30:36;;;;;;;37.05;21.23;;;10.80;1.00;;;10.95;100.00;99091.16;4962614;28;129762;-71
2022/10/26 05:33:06;;;;;;;65.05;51.50;;;10.80;1.00;;;10.97;100.00;99097.06;4962218;28;129401;-70
2022/10/26 05:35:36;;;;;;;50.50;32.35;;;10.80;1.00;;;10.98;100.00;99098.66;4962454;28;120069;-69
2022/10/26 05:38:08;;;;;;;43.45;25.55;;;10.80;1.00;;;11.01;100.00;99103.44;4962417;28;119455;-70
2022/10/26 05:40:37;;;;;;;41.60;23.15;;;10.80;1.00;;;11.04;100.00;99102.78;4962049;28;130129;-69
2022/10/26 05:43:06;;;;;;;38.05;23.98;;;10.80;1.00;;;11.04;100.00;99097.34;4961784;28;129400;-70
2022/10/26 05:45:34;;;;;;;40.78;22.75;;;10.80;1.00;;;11.12;100.00;99104.66;4962514;28;120481;-71
2022/10/26 05:48:02;;;;;;;37.45;21.77;;;10.80;1.00;;;11.17;100.00;99105.63;4962686;28;120075;-68
2022/10/26 05:50:31;;;;;;;46.72;26.95;;;10.80;1.00;;;11.13;100.00;99111.69;4961791;28;130280;-71
2022/10/26 05:53:01;;;;;;;44.20;24.80;;;10.70;1.00;;;11.10;100.00;99111.56;4961778;28;129508;-69
2022/10/26 05:55:30;;;;;;;49.65;26.67;;;10.70;1.00;;;11.08;100.00;99111.06;4960893;28;121877;-68
2022/10/26 05:57:59;;;;;;;54.50;34.15;;;10.60;1.00;;;11.04;100.00;99118.28;4962125;28;122282;-69
2022/10/26 06:00:30;;;;;;;48.53;28.92;;;10.60;1.00;;;11.03;100.00;99108.53;4961890;28;129912;-70
2022/10/26 06:03:20;;;;;;;53.13;29.98;;;10.60;1.00;;;10.94;100.00;99108.56;4961701;28;129276;-71
2022/10/26 06:05:55;;;;;;;51.03;27.85;;;10.50;1.00;;;10.96;100.00;99107.13;4961586;28;119616;-71
2022/10/26 06:08:28;;;;;;;56.00;30.98;;;10.50;1.00;;;10.99;100.00;99113.81;4962281;28;120206;-72
2022/10/26 06:10:58;;;;;;;50.40;26.88;;;10.50;1.00;;;10.99;100.00;99121.19;4961514;28;130057;-70
2022/10/26 06:13:28;;;;;;;39.92;23.00;;;10.50;1.00;;;10.97;100.00;99113.34;4956764;28;129939;-70
2022/10/26 06:16:26;;;;;;;42.83;22.95;;;10.40;1.00;;;11.00;100.00;99117.31;4924727;28;119616;-70
2022/10/26 06:19:02;;;;;;;;;;;10.40;1.00;;;10.96;100.00;99117.19;4926273;28;119433;-70
2022/10/26 06:21:50;;;;;;;45.90;27.20;;;10.40;1.00;;;11.03;100.00;99122.94;4940645;28;130673;-70
2022/10/26 06:24:30;;;;;;;41.78;24.48;;;10.40;1.00;;;11.09;100.00;99121.59;4941250;28;129578;-71
2022/10/26 06:27:12;;;;;;;38.33;23.30;;;10.40;1.00;;;11.21;100.00;99133.75;4927029;28;118808;-69
2022/10/26 06:29:52;;;;;;;47.45;26.58;;;10.50;1.00;;;11.29;100.00;99135.63;4942124;28;119767;-70
2022/10/26 06:32:22;;;;;;;107.13;52.42;;;10.50;1.00;;;11.47;100.00;99125.50;4927281;28;129826;-71
2022/10/26 06:35:00;;;;;;;51.80;27.75;;;10.60;1.00;;;11.78;100.00;99130.63;4924706;28;129817;-71
2022/10/26 06:37:30;;;;;;;33.58;18.88;;;10.80;1.00;;;12.13;100.00;99124.97;4941741;28;119395;-71
2022/10/26 06:40:02;;;;;;;28.98;17.88;;;11.10;1.00;;;12.49;100.00;99130.97;4936417;28;119422;-71
2022/10/26 06:42:32;;;;;;;22.25;15.27;;;11.30;99.90;;;12.75;100.00;99122.56;4927421;28;129415;-69
2022/10/26 06:45:01;;;;;;;22.33;14.32;;;11.60;99.90;;;12.98;100.00;99130.34;4941544;28;129446;-71
2022/10/26 06:47:38;;;;;;;21.40;13.27;;;11.50;99.90;;;13.07;100.00;99134.59;4945052;28;121743;-72
2022/10/26 06:50:21;;;;;;;20.58;13.70;;;11.60;99.90;;;13.23;100.00;99137.44;4957414;28;121957;-72
2022/10/26 06:53:02;;;;;;;20.08;12.68;;;11.80;99.90;;;13.13;100.00;99138.69;4930118;28;128735;-72
2022/10/26 06:55:42;;;;;;;23.20;12.38;;;11.80;99.90;;;13.03;100.00;99146.50;4956668;28;129626;-71
2022/10/26 06:58:16;;;;;;;21.15;12.77;;;11.70;99.90;;;12.89;100.00;99147.56;4937627;28;120116;-71
2022/10/26 07:00:46;;;;;;;19.38;13.15;;;11.50;99.90;;;12.66;100.00;99159.97;4940839;28;119608;-72
2022/10/26 07:03:15;;;;;;;19.08;12.07;;;11.50;99.90;;;12.57;100.00;99166.28;4926605;28;128967;-72
2022/10/26 07:05:44;;;;;;;18.15;11.63;;;11.30;99.90;;;12.37;100.00;99162.44;4957248;28;130118;-74
2022/10/26 07:08:12;;;;;;;19.02;11.98;;;11.30;99.90;;;12.31;100.00;99160.22;4960698;28;119786;-74
2022/10/26 07:10:43;;;;;;;17.70;11.40;;;11.20;99.90;;;12.21;100.00;99170.34;4961194;28;119420;-72
2022/10/26 07:13:11;;;;;;;15.95;10.82;;;11.20;99.90;;;12.15;100.00;99171.69;4959076;28;129547;-73
2022/10/26 07:15:41;;;;;;;22.90;11.32;;;11.20;99.90;;;12.14;100.00;99169.28;4960408;28;130125;-72
2022/10/26 07:18:10;;;;;;;20.75;11.60;;;11.30;99.90;;;12.29;100.00;99171.44;4929792;28;119361;-71
2022/10/26 07:20:40;;;;;;;18.52;11.50;;;11.30;99.90;;;12.36;100.00;99169.00;4960739;28;119370;-72
2022/10/26 07:23:10;;;;;;;18.23;10.10;;;11.40;99.90;;;12.46;100.00;99167.78;4942704;28;129760;-72
2022/10/26 07:25:40;;;;;;;16.38;10.38;;;11.50;99.90;;;12.58;100.00;99173.28;4960305;28;129111;-71
2022/10/26 07:28:11;;;;;;;15.55;9.60;;;11.60;99.90;;;12.74;100.00;99180.88;4935946;28;118921;-73
2022/10/26 07:30:40;;;;;;;15.20;9.50;;;11.70;99.90;;;12.78;100.00;99179.06;4927971;28;119929;-72
2022/10/26 07:33:11;;;;;;;16.45;8.80;;;11.60;99.90;;;12.73;100.00;99187.44;4942262;28;129894;-74
2022/10/26 07:35:40;;;;;;;13.02;8.20;;;11.60;99.90;;;12.73;100.00;99184.69;4952288;28;129470;-75
